sensor_id;sensor_type;location;lat;lon;timestamp;pressure;altitude;pressure_sealevel;temperature;humidity
82870;BME280;72645;47.136;15.420;2023-12-07T00:01:07;96797.61;;;1.47;74.22
82870;BME280;72645;47.136;15.420;2023-12-07T00:03:38;96797.36;;;1.42;74.29
82870;BME280;72645;47.136;15.420;2023-12-07T00:06:09;96799.39;;;1.39;74.26
82870;BME280;72645;47.136;15.420;2023-12-07T00:08:40;96804.35;;;1.37;74.28
82870;BME280;72645;47.136;15.420;2023-12-07T00:11:11;96803.73;;;1.36;74.25
82870;BME280;72645;47.136;15.420;2023-12-07T00:13:42;96797.69;;;1.27;74.40
82870;BME280;72645;47.136;15.420;2023-12-07T00:16:13;96800.13;;;1.14;74.27
82870;BME280;72645;47.136;15.420;2023-12-07T00:18:44;96801.13;;;1.05;74.39
82870;BME280;72645;47.136;15.420;2023-12-07T00:21:15;96794.96;;;1.01;74.49
82870;BME280;72645;47.136;15.420;2023-12-07T00:23:46;96800.88;;;1.00;74.45
82870;BME280;72645;47.136;15.420;2023-12-07T00:26:17;96807.61;;;1.03;74.27
82870;BME280;72645;47.136;15.420;2023-12-07T00:28:48;96805.11;;;1.05;74.15
82870;BME280;72645;47.136;15.420;2023-12-07T00:31:19;96803.23;;;1.08;74.03
82870;BME280;72645;47.136;15.420;2023-12-07T00:33:50;96813.27;;;1.10;73.97
82870;BME280;72645;47.136;15.420;2023-12-07T00:36:21;96821.95;;;1.06;73.76
82870;BME280;72645;47.136;15.420;2023-12-07T00:38:52;96811.40;;;0.97;73.72
82870;BME280;72645;47.136;15.420;2023-12-07T00:41:23;96812.21;;;0.92;73.81
82870;BME280;72645;47.136;15.420;2023-12-07T00:43:53;96820.12;;;0.89;73.73
82870;BME280;72645;47.136;15.420;2023-12-07T00:46:24;96820.48;;;0.85;73.66
82870;BME280;72645;47.136;15.420;2023-12-07T00:48:55;96818.20;;;0.80;73.73
82870;BME280;72645;47.136;15.420;2023-12-07T00:51:26;96822.89;;;0.76;73.73
82870;BME280;72645;47.136;15.420;2023-12-07T00:53:57;96818.34;;;0.71;73.76
82870;BME280;72645;47.136;15.420;2023-12-07T00:56:28;96821.21;;;0.65;73.83
82870;BME280;72645;47.136;15.420;2023-12-07T00:58:59;96822.02;;;0.60;73.93
82870;BME280;72645;47.136;15.420;2023-12-07T01:01:31;96819.68;;;0.55;74.16
82870;BME280;72645;47.136;15.420;2023-12-07T01:04:02;96819.68;;;0.55;74.10
82870;BME280;72645;47.136;15.420;2023-12-07T01:06:32;96821.56;;;0.58;74.00
82870;BME280;72645;47.136;15.420;2023-12-07T01:09:04;96821.60;;;0.64;74.01
82870;BME280;72645;47.136;15.420;2023-12-07T01:11:34;96818.10;;;0.66;73.78
82870;BME280;72645;47.136;15.420;2023-12-07T01:14:05;96818.20;;;0.67;73.78
82870;BME280;72645;47.136;15.420;2023-12-07T01:16:36;96817.58;;;0.65;73.61
82870;BME280;72645;47.136;15.420;2023-12-07T01:19:07;96821.08;;;0.61;73.55
82870;BME280;72645;47.136;15.420;2023-12-07T01:21:38;96826.52;;;0.56;73.61
82870;BME280;72645;47.136;15.420;2023-12-07T01:24:10;96826.47;;;0.47;73.59
82870;BME280;72645;47.136;15.420;2023-12-07T01:26:45;96829.91;;;0.41;73.79
82870;BME280;72645;47.136;15.420;2023-12-07T01:29:16;96832.05;;;0.36;73.73
82870;BME280;72645;47.136;15.420;2023-12-07T01:31:47;96827.02;;;0.27;73.85
82870;BME280;72645;47.136;15.420;2023-12-07T01:34:18;96831.00;;;0.20;74.06
82870;BME280;72645;47.136;15.420;2023-12-07T01:36:49;96831.26;;;0.18;73.97
82870;BME280;72645;47.136;15.420;2023-12-07T01:39:20;96835.80;;;0.20;73.90
82870;BME280;72645;47.136;15.420;2023-12-07T01:41:51;96842.54;;;0.23;73.71
82870;BME280;72645;47.136;15.420;2023-12-07T01:44:22;96843.29;;;0.18;73.55
82870;BME280;72645;47.136;15.420;2023-12-07T01:46:53;96843.73;;;0.13;73.61
82870;BME280;72645;47.136;15.420;2023-12-07T01:49:24;96842.84;;;0.03;73.65
82870;BME280;72645;47.136;15.420;2023-12-07T01:51:55;96840.77;;;-0.07;73.62
82870;BME280;72645;47.136;15.420;2023-12-07T01:54:27;96843.04;;;-0.22;73.90
82870;BME280;72645;47.136;15.420;2023-12-07T01:56:58;96839.69;;;-0.27;74.12
82870;BME280;72645;47.136;15.420;2023-12-07T01:59:29;96843.79;;;-0.37;74.09
82870;BME280;72645;47.136;15.420;2023-12-07T02:02:00;96849.24;;;-0.50;73.94
82870;BME280;72645;47.136;15.420;2023-12-07T02:04:31;96847.04;;;-0.65;73.80
82870;BME280;72645;47.136;15.420;2023-12-07T02:07:03;96844.52;;;-0.77;74.02
82870;BME280;72645;47.136;15.420;2023-12-07T02:09:34;96848.08;;;-0.80;74.16
82870;BME280;72645;47.136;15.420;2023-12-07T02:12:05;96847.45;;;-0.85;74.05
82870;BME280;72645;47.136;15.420;2023-12-07T02:14:37;96846.14;;;-0.97;74.07
82870;BME280;72645;47.136;15.420;2023-12-07T02:17:16;96841.73;;;-1.06;74.31
82870;BME280;72645;47.136;15.420;2023-12-07T02:19:55;96839.85;;;-1.03;74.23
82870;BME280;72645;47.136;15.420;2023-12-07T02:22:31;96839.81;;;-0.98;74.21
82870;BME280;72645;47.136;15.420;2023-12-07T02:25:10;96844.30;;;-0.95;74.34
82870;BME280;72645;47.136;15.420;2023-12-07T02:27:44;96841.58;;;-0.88;74.39
82870;BME280;72645;47.136;15.420;2023-12-07T02:30:16;96845.52;;;-0.84;74.27
82870;BME280;72645;47.136;15.420;2023-12-07T02:32:47;96848.83;;;-0.81;74.61
82870;BME280;72645;47.136;15.420;2023-12-07T02:35:18;96848.61;;;-0.77;74.58
82870;BME280;72645;47.136;15.420;2023-12-07T02:37:50;96853.58;;;-0.72;74.03
82870;BME280;72645;47.136;15.420;2023-12-07T02:40:23;96859.69;;;-0.71;73.89
82870;BME280;72645;47.136;15.420;2023-12-07T02:42:55;96865.91;;;-0.72;74.02
82870;BME280;72645;47.136;15.420;2023-12-07T02:45:27;96868.17;;;-0.72;74.25
82870;BME280;72645;47.136;15.420;2023-12-07T02:47:58;96872.10;;;-0.72;73.97
82870;BME280;72645;47.136;15.420;2023-12-07T02:50:29;96871.29;;;-0.73;73.84
82870;BME280;72645;47.136;15.420;2023-12-07T02:52:58;96871.39;;;-0.75;73.80
82870;BME280;72645;47.136;15.420;2023-12-07T02:55:29;96874.48;;;-0.82;74.04
82870;BME280;72645;47.136;15.420;2023-12-07T02:58:00;96879.13;;;-0.90;74.13
82870;BME280;72645;47.136;15.420;2023-12-07T03:00:31;96888.72;;;-0.97;74.41
82870;BME280;72645;47.136;15.420;2023-12-07T03:03:02;96890.67;;;-0.98;74.35
82870;BME280;72645;47.136;15.420;2023-12-07T03:05:33;96890.07;;;-0.96;74.18
82870;BME280;72645;47.136;15.420;2023-12-07T03:08:04;96895.79;;;-0.97;74.10
82870;BME280;72645;47.136;15.420;2023-12-07T03:10:35;96895.55;;;-0.96;73.91
82870;BME280;72645;47.136;15.420;2023-12-07T03:13:06;96893.42;;;-0.94;73.84
82870;BME280;72645;47.136;15.420;2023-12-07T03:15:37;96892.54;;;-0.90;73.74
82870;BME280;72645;47.136;15.420;2023-12-07T03:18:08;96891.77;;;-0.92;73.63
82870;BME280;72645;47.136;15.420;2023-12-07T03:20:40;96890.09;;;-0.96;73.79
82870;BME280;72645;47.136;15.420;2023-12-07T03:23:11;96888.44;;;-1.02;73.77
82870;BME280;72645;47.136;15.420;2023-12-07T03:25:41;96890.02;;;-1.06;74.06
82870;BME280;72645;47.136;15.420;2023-12-07T03:28:12;96892.58;;;-1.06;74.50
82870;BME280;72645;47.136;15.420;2023-12-07T03:30:43;96894.64;;;-1.06;74.44
82870;BME280;72645;47.136;15.420;2023-12-07T03:33:14;96895.46;;;-1.06;74.79
82870;BME280;72645;47.136;15.420;2023-12-07T03:35:46;96894.56;;;-1.04;74.50
82870;BME280;72645;47.136;15.420;2023-12-07T03:38:16;96899.84;;;-1.03;74.14
82870;BME280;72645;47.136;15.420;2023-12-07T03:40:47;96900.84;;;-1.02;74.18
82870;BME280;72645;47.136;15.420;2023-12-07T03:43:19;96904.61;;;-0.99;73.84
82870;BME280;72645;47.136;15.420;2023-12-07T03:45:50;96906.72;;;-0.96;73.80
82870;BME280;72645;47.136;15.420;2023-12-07T03:48:21;96907.42;;;-0.92;73.57
82870;BME280;72645;47.136;15.420;2023-12-07T03:50:52;96911.66;;;-0.87;73.53
82870;BME280;72645;47.136;15.420;2023-12-07T03:53:23;96912.44;;;-0.82;73.77
82870;BME280;72645;47.136;15.420;2023-12-07T03:55:55;96913.23;;;-0.76;73.82
82870;BME280;72645;47.136;15.420;2023-12-07T03:58:26;96913.77;;;-0.77;73.37
82870;BME280;72645;47.136;15.420;2023-12-07T04:00:57;96917.85;;;-0.80;73.56
82870;BME280;72645;47.136;15.420;2023-12-07T04:03:28;96920.13;;;-0.85;73.31
82870;BME280;72645;47.136;15.420;2023-12-07T04:05:59;96923.27;;;-0.89;73.34
82870;BME280;72645;47.136;15.420;2023-12-07T04:08:30;96929.96;;;-0.97;73.06
82870;BME280;72645;47.136;15.420;2023-12-07T04:11:01;96932.88;;;-1.12;73.10
82870;BME280;72645;47.136;15.420;2023-12-07T04:13:32;96935.98;;;-1.24;73.45
82870;BME280;72645;47.136;15.420;2023-12-07T04:16:03;96936.73;;;-1.33;73.72
82870;BME280;72645;47.136;15.420;2023-12-07T04:18:35;96939.89;;;-1.39;73.75
82870;BME280;72645;47.136;15.420;2023-12-07T04:21:06;96945.71;;;-1.42;73.93
82870;BME280;72645;47.136;15.420;2023-12-07T04:23:37;96946.30;;;-1.44;74.04
82870;BME280;72645;47.136;15.420;2023-12-07T04:26:08;96945.59;;;-1.44;74.18
82870;BME280;72645;47.136;15.420;2023-12-07T04:28:39;96946.93;;;-1.39;74.39
82870;BME280;72645;47.136;15.420;2023-12-07T04:31:10;96945.45;;;-1.32;73.79
82870;BME280;72645;47.136;15.420;2023-12-07T04:33:41;96952.58;;;-1.27;73.75
82870;BME280;72645;47.136;15.420;2023-12-07T04:36:12;96952.91;;;-1.23;73.70
82870;BME280;72645;47.136;15.420;2023-12-07T04:38:43;96951.86;;;-1.26;73.72
82870;BME280;72645;47.136;15.420;2023-12-07T04:41:14;96956.73;;;-1.31;73.52
82870;BME280;72645;47.136;15.420;2023-12-07T04:43:45;96958.90;;;-1.41;73.80
82870;BME280;72645;47.136;15.420;2023-12-07T04:46:14;96961.05;;;-1.43;73.76
82870;BME280;72645;47.136;15.420;2023-12-07T04:48:46;96964.43;;;-1.47;74.06
82870;BME280;72645;47.136;15.420;2023-12-07T04:51:17;96966.88;;;-1.48;73.81
82870;BME280;72645;47.136;15.420;2023-12-07T04:53:48;96965.30;;;-1.52;74.15
82870;BME280;72645;47.136;15.420;2023-12-07T04:56:20;96971.68;;;-1.52;73.91
82870;BME280;72645;47.136;15.420;2023-12-07T04:58:51;96972.27;;;-1.54;73.97
82870;BME280;72645;47.136;15.420;2023-12-07T05:01:20;96971.92;;;-1.54;74.41
82870;BME280;72645;47.136;15.420;2023-12-07T05:03:51;96977.81;;;-1.51;74.27
82870;BME280;72645;47.136;15.420;2023-12-07T05:06:21;96984.04;;;-1.48;74.52
82870;BME280;72645;47.136;15.420;2023-12-07T05:08:51;96984.23;;;-1.44;74.64
82870;BME280;72645;47.136;15.420;2023-12-07T05:11:23;96980.37;;;-1.42;74.62
82870;BME280;72645;47.136;15.420;2023-12-07T05:13:53;96983.94;;;-1.37;74.63
82870;BME280;72645;47.136;15.420;2023-12-07T05:16:23;96991.87;;;-1.30;74.47
82870;BME280;72645;47.136;15.420;2023-12-07T05:18:54;96995.02;;;-1.31;74.46
82870;BME280;72645;47.136;15.420;2023-12-07T05:21:25;96998.73;;;-1.34;74.39
82870;BME280;72645;47.136;15.420;2023-12-07T05:23:54;97006.17;;;-1.30;74.40
82870;BME280;72645;47.136;15.420;2023-12-07T05:26:25;97007.92;;;-1.32;74.20
82870;BME280;72645;47.136;15.420;2023-12-07T05:28:54;97012.06;;;-1.36;74.43
82870;BME280;72645;47.136;15.420;2023-12-07T05:31:25;97015.86;;;-1.36;74.58
82870;BME280;72645;47.136;15.420;2023-12-07T05:33:56;97018.71;;;-1.35;74.16
82870;BME280;72645;47.136;15.420;2023-12-07T05:36:28;97022.12;;;-1.34;73.90
82870;BME280;72645;47.136;15.420;2023-12-07T05:38:59;97027.92;;;-1.33;74.08
82870;BME280;72645;47.136;15.420;2023-12-07T05:41:29;97030.31;;;-1.33;74.19
82870;BME280;72645;47.136;15.420;2023-12-07T05:44:00;97029.00;;;-1.35;74.35
82870;BME280;72645;47.136;15.420;2023-12-07T05:46:33;97030.39;;;-1.35;74.34
82870;BME280;72645;47.136;15.420;2023-12-07T05:49:05;97035.11;;;-1.33;74.36
82870;BME280;72645;47.136;15.420;2023-12-07T05:51:36;97034.19;;;-1.27;74.03
82870;BME280;72645;47.136;15.420;2023-12-07T05:54:07;97035.50;;;-1.21;73.65
82870;BME280;72645;47.136;15.420;2023-12-07T05:56:38;97034.48;;;-1.18;73.77
82870;BME280;72645;47.136;15.420;2023-12-07T05:59:10;97036.35;;;-1.14;73.84
82870;BME280;72645;47.136;15.420;2023-12-07T06:01:41;97037.45;;;-1.15;73.89
82870;BME280;72645;47.136;15.420;2023-12-07T06:04:13;97041.61;;;-1.20;73.70
82870;BME280;72645;47.136;15.420;2023-12-07T06:06:45;97039.05;;;-1.21;73.79
82870;BME280;72645;47.136;15.420;2023-12-07T06:09:17;97039.16;;;-1.23;73.68
82870;BME280;72645;47.136;15.420;2023-12-07T06:11:48;97038.16;;;-1.08;79.40
82870;BME280;72645;47.136;15.420;2023-12-07T06:14:17;97037.23;;;-0.10;87.64
82870;BME280;72645;47.136;15.420;2023-12-07T06:16:48;97039.90;;;0.98;89.59
82870;BME280;72645;47.136;15.420;2023-12-07T06:19:19;97040.05;;;1.35;86.96
82870;BME280;72645;47.136;15.420;2023-12-07T06:21:50;97039.45;;;1.20;79.37
82870;BME280;72645;47.136;15.420;2023-12-07T06:24:21;97042.89;;;0.94;76.51
82870;BME280;72645;47.136;15.420;2023-12-07T06:26:54;97044.33;;;0.72;74.85
82870;BME280;72645;47.136;15.420;2023-12-07T06:29:25;97048.61;;;0.51;73.85
82870;BME280;72645;47.136;15.420;2023-12-07T06:31:58;97050.08;;;0.28;73.40
82870;BME280;72645;47.136;15.420;2023-12-07T06:34:30;97053.80;;;0.08;73.12
82870;BME280;72645;47.136;15.420;2023-12-07T06:37:01;97050.05;;;-0.12;73.21
82870;BME280;72645;47.136;15.420;2023-12-07T06:39:32;97046.36;;;-0.29;73.32
82870;BME280;72645;47.136;15.420;2023-12-07T06:42:03;97050.52;;;-0.45;72.98
82870;BME280;72645;47.136;15.420;2023-12-07T06:44:34;97051.67;;;-0.63;73.00
82870;BME280;72645;47.136;15.420;2023-12-07T06:47:06;97049.98;;;-0.83;73.08
82870;BME280;72645;47.136;15.420;2023-12-07T06:49:36;97052.34;;;-1.02;73.35
82870;BME280;72645;47.136;15.420;2023-12-07T06:52:20;97056.86;;;-1.11;74.09
82870;BME280;72645;47.136;15.420;2023-12-07T06:54:51;97061.05;;;-1.13;74.02
82870;BME280;72645;47.136;15.420;2023-12-07T06:57:22;97062.43;;;-1.13;74.04
82870;BME280;72645;47.136;15.420;2023-12-07T06:59:54;97062.20;;;-1.11;74.19
82870;BME280;72645;47.136;15.420;2023-12-07T07:02:25;97064.77;;;-1.07;74.38
82870;BME280;72645;47.136;15.420;2023-12-07T07:04:56;97066.59;;;-0.98;74.29
82870;BME280;72645;47.136;15.420;2023-12-07T07:07:27;97066.35;;;-0.88;73.79
82870;BME280;72645;47.136;15.420;2023-12-07T07:10:00;97069.51;;;-0.81;73.81
82870;BME280;72645;47.136;15.420;2023-12-07T07:12:32;97071.07;;;-0.78;73.55
82870;BME280;72645;47.136;15.420;2023-12-07T07:15:03;97072.09;;;-0.78;73.63
82870;BME280;72645;47.136;15.420;2023-12-07T07:17:34;97073.36;;;-0.79;73.59
82870;BME280;72645;47.136;15.420;2023-12-07T07:20:07;97074.38;;;-0.83;73.20
82870;BME280;72645;47.136;15.420;2023-12-07T07:22:38;97074.68;;;-0.90;73.56
82870;BME280;72645;47.136;15.420;2023-12-07T07:25:10;97082.15;;;-0.92;73.69
82870;BME280;72645;47.136;15.420;2023-12-07T07:27:42;97080.70;;;-0.98;73.79
82870;BME280;72645;47.136;15.420;2023-12-07T07:30:14;97084.66;;;-0.98;74.19
82870;BME280;72645;47.136;15.420;2023-12-07T07:32:45;97086.51;;;-0.73;73.94
82870;BME280;72645;47.136;15.420;2023-12-07T07:35:16;97088.50;;;-0.36;74.48
82870;BME280;72645;47.136;15.420;2023-12-07T07:37:48;97088.15;;;-0.06;74.46
82870;BME280;72645;47.136;15.420;2023-12-07T07:40:19;97093.61;;;0.32;74.46
82870;BME280;72645;47.136;15.420;2023-12-07T07:42:50;97091.54;;;0.58;73.83
82870;BME280;72645;47.136;15.420;2023-12-07T07:45:21;97094.66;;;0.64;72.68
82870;BME280;72645;47.136;15.420;2023-12-07T07:50:23;97098.38;;;0.40;71.07
82870;BME280;72645;47.136;15.420;2023-12-07T07:52:54;97098.41;;;0.22;71.74
82870;BME280;72645;47.136;15.420;2023-12-07T07:55:25;97101.52;;;0.14;72.04
82870;BME280;72645;47.136;15.420;2023-12-07T07:57:56;97101.30;;;0.12;72.14
82870;BME280;72645;47.136;15.420;2023-12-07T08:00:27;97101.13;;;0.12;72.53
82870;BME280;72645;47.136;15.420;2023-12-07T08:02:56;97104.94;;;0.14;72.62
82870;BME280;72645;47.136;15.420;2023-12-07T08:05:27;97105.21;;;0.16;72.60
82870;BME280;72645;47.136;15.420;2023-12-07T08:07:59;97102.84;;;0.15;72.71
82870;BME280;72645;47.136;15.420;2023-12-07T08:10:29;97108.23;;;0.18;73.01
82870;BME280;72645;47.136;15.420;2023-12-07T08:13:20;97107.31;;;0.30;73.69
82870;BME280;72645;47.136;15.420;2023-12-07T08:15:51;97113.64;;;0.46;73.41
82870;BME280;72645;47.136;15.420;2023-12-07T08:18:27;97118.48;;;0.60;73.39
82870;BME280;72645;47.136;15.420;2023-12-07T08:20:58;97109.63;;;0.79;73.79
82870;BME280;72645;47.136;15.420;2023-12-07T08:23:29;97112.17;;;1.07;74.33
82870;BME280;72645;47.136;15.420;2023-12-07T08:26:00;97114.14;;;1.40;73.99
82870;BME280;72645;47.136;15.420;2023-12-07T08:28:31;97112.50;;;1.75;73.66
82870;BME280;72645;47.136;15.420;2023-12-07T08:31:02;97115.48;;;2.13;73.29
82870;BME280;72645;47.136;15.420;2023-12-07T08:33:33;97113.43;;;2.47;72.25
82870;BME280;72645;47.136;15.420;2023-12-07T08:36:05;97120.39;;;2.80;71.66
82870;BME280;72645;47.136;15.420;2023-12-07T08:38:37;97122.67;;;3.16;71.20
82870;BME280;72645;47.136;15.420;2023-12-07T08:41:08;97117.13;;;3.49;70.08
82870;BME280;72645;47.136;15.420;2023-12-07T08:43:39;97114.95;;;3.76;69.30
82870;BME280;72645;47.136;15.420;2023-12-07T08:46:10;97120.02;;;3.95;68.28
82870;BME280;72645;47.136;15.420;2023-12-07T08:48:41;97124.30;;;4.13;67.97
82870;BME280;72645;47.136;15.420;2023-12-07T08:51:12;97126.77;;;4.40;67.67
82870;BME280;72645;47.136;15.420;2023-12-07T08:53:43;97123.66;;;4.70;66.94
82870;BME280;72645;47.136;15.420;2023-12-07T08:56:16;97128.13;;;5.00;66.25
82870;BME280;72645;47.136;15.420;2023-12-07T08:58:47;97124.74;;;5.17;65.28
82870;BME280;72645;47.136;15.420;2023-12-07T09:01:18;97126.65;;;5.36;64.80
82870;BME280;72645;47.136;15.420;2023-12-07T09:04:01;97131.95;;;5.52;64.11
82870;BME280;72645;47.136;15.420;2023-12-07T09:06:32;97134.63;;;5.77;64.03
82870;BME280;72645;47.136;15.420;2023-12-07T09:09:03;97135.31;;;5.96;63.73
82870;BME280;72645;47.136;15.420;2023-12-07T09:11:34;97134.05;;;6.16;63.50
82870;BME280;72645;47.136;15.420;2023-12-07T09:14:05;97135.16;;;6.30;62.68
82870;BME280;72645;47.136;15.420;2023-12-07T09:16:36;97137.28;;;6.49;62.46
82870;BME280;72645;47.136;15.420;2023-12-07T09:19:13;97139.52;;;6.69;61.96
82870;BME280;72645;47.136;15.420;2023-12-07T09:21:44;97142.34;;;6.81;61.74
82870;BME280;72645;47.136;15.420;2023-12-07T09:24:15;97136.29;;;6.90;61.12
82870;BME280;72645;47.136;15.420;2023-12-07T09:26:45;97135.64;;;6.96;61.37
82870;BME280;72645;47.136;15.420;2023-12-07T09:29:17;97140.59;;;7.07;61.10
82870;BME280;72645;47.136;15.420;2023-12-07T09:31:48;97139.21;;;7.23;60.94
82870;BME280;72645;47.136;15.420;2023-12-07T09:34:20;97134.59;;;7.29;60.38
82870;BME280;72645;47.136;15.420;2023-12-07T09:36:51;97129.36;;;7.29;60.20
82870;BME280;72645;47.136;15.420;2023-12-07T09:39:35;97134.79;;;7.36;60.25
82870;BME280;72645;47.136;15.420;2023-12-07T09:42:07;97123.15;;;7.48;60.40
82870;BME280;72645;47.136;15.420;2023-12-07T09:44:38;97125.82;;;7.63;60.39
82870;BME280;72645;47.136;15.420;2023-12-07T09:47:09;97119.77;;;7.76;59.77
82870;BME280;72645;47.136;15.420;2023-12-07T09:49:42;97115.84;;;7.93;59.15
82870;BME280;72645;47.136;15.420;2023-12-07T09:52:15;97118.56;;;8.05;58.60
82870;BME280;72645;47.136;15.420;2023-12-07T09:54:46;97120.27;;;8.19;58.47
82870;BME280;72645;47.136;15.420;2023-12-07T09:57:17;97115.13;;;8.31;56.15
82870;BME280;72645;47.136;15.420;2023-12-07T09:59:48;97110.48;;;8.39;55.58
82870;BME280;72645;47.136;15.420;2023-12-07T10:02:19;97111.77;;;8.52;56.65
82870;BME280;72645;47.136;15.420;2023-12-07T10:04:50;97099.02;;;8.61;56.05
82870;BME280;72645;47.136;15.420;2023-12-07T10:07:39;97099.31;;;8.72;55.00
82870;BME280;72645;47.136;15.420;2023-12-07T10:10:11;97094.58;;;8.75;52.95
82870;BME280;72645;47.136;15.420;2023-12-07T10:12:51;97091.86;;;8.76;51.08
82870;BME280;72645;47.136;15.420;2023-12-07T10:15:23;97095.81;;;8.90;52.30
82870;BME280;72645;47.136;15.420;2023-12-07T10:17:56;97091.78;;;9.01;53.44
82870;BME280;72645;47.136;15.420;2023-12-07T10:20:29;97089.13;;;9.08;50.63
82870;BME280;72645;47.136;15.420;2023-12-07T10:23:04;97087.16;;;9.06;50.58
82870;BME280;72645;47.136;15.420;2023-12-07T10:25:39;97083.73;;;9.05;50.67
82870;BME280;72645;47.136;15.420;2023-12-07T10:28:11;97082.45;;;9.10;50.31
82870;BME280;72645;47.136;15.420;2023-12-07T10:30:43;97085.09;;;9.24;51.63
82870;BME280;72645;47.136;15.420;2023-12-07T10:33:14;97089.34;;;9.39;51.57
82870;BME280;72645;47.136;15.420;2023-12-07T10:35:46;97088.86;;;9.55;52.07
82870;BME280;72645;47.136;15.420;2023-12-07T10:38:19;97087.95;;;9.69;50.23
82870;BME280;72645;47.136;15.420;2023-12-07T10:40:56;97089.48;;;9.78;50.13
82870;BME280;72645;47.136;15.420;2023-12-07T10:43:32;97091.04;;;9.82;48.46
82870;BME280;72645;47.136;15.420;2023-12-07T10:46:08;97092.42;;;9.80;48.23
82870;BME280;72645;47.136;15.420;2023-12-07T10:48:40;97088.10;;;9.90;47.83
82870;BME280;72645;47.136;15.420;2023-12-07T10:51:17;97091.10;;;9.98;46.77
82870;BME280;72645;47.136;15.420;2023-12-07T10:53:50;97091.25;;;10.06;46.48
82870;BME280;72645;47.136;15.420;2023-12-07T10:56:28;97088.23;;;10.12;45.26
82870;BME280;72645;47.136;15.420;2023-12-07T10:58:59;97088.84;;;10.19;45.21
82870;BME280;72645;47.136;15.420;2023-12-07T11:01:32;97089.36;;;10.14;43.71
82870;BME280;72645;47.136;15.420;2023-12-07T11:04:06;97092.66;;;10.13;46.96
82870;BME280;72645;47.136;15.420;2023-12-07T11:06:38;97092.14;;;10.21;47.74
82870;BME280;72645;47.136;15.420;2023-12-07T11:09:12;97091.84;;;10.32;47.10
82870;BME280;72645;47.136;15.420;2023-12-07T11:11:54;97090.45;;;10.52;46.57
82870;BME280;72645;47.136;15.420;2023-12-07T11:14:27;97087.25;;;10.67;45.66
82870;BME280;72645;47.136;15.420;2023-12-07T11:16:59;97093.89;;;10.81;45.16
82870;BME280;72645;47.136;15.420;2023-12-07T11:19:49;97099.15;;;10.84;44.46
82870;BME280;72645;47.136;15.420;2023-12-07T11:22:21;97102.09;;;10.91;42.95
82870;BME280;72645;47.136;15.420;2023-12-07T11:24:56;97100.81;;;10.84;43.30
82870;BME280;72645;47.136;15.420;2023-12-07T11:27:32;97098.30;;;10.75;42.32
82870;BME280;72645;47.136;15.420;2023-12-07T11:30:04;97095.25;;;10.63;41.97
82870;BME280;72645;47.136;15.420;2023-12-07T11:32:36;97098.41;;;10.63;43.37
82870;BME280;72645;47.136;15.420;2023-12-07T11:35:12;97093.92;;;10.71;41.72
82870;BME280;72645;47.136;15.420;2023-12-07T11:40:30;97099.08;;;10.52;41.33
82870;BME280;72645;47.136;15.420;2023-12-07T11:43:03;97097.58;;;10.51;41.92
82870;BME280;72645;47.136;15.420;2023-12-07T11:45:48;97096.23;;;10.52;42.08
82870;BME280;72645;47.136;15.420;2023-12-07T11:48:19;97100.97;;;10.52;42.15
82870;BME280;72645;47.136;15.420;2023-12-07T11:50:59;97100.54;;;10.53;40.84
82870;BME280;72645;47.136;15.420;2023-12-07T11:53:32;97100.43;;;10.48;41.13
82870;BME280;72645;47.136;15.420;2023-12-07T11:56:05;97097.35;;;10.54;41.15
82870;BME280;72645;47.136;15.420;2023-12-07T11:58:37;97100.76;;;10.58;40.85
82870;BME280;72645;47.136;15.420;2023-12-07T12:01:10;97092.85;;;10.49;38.13
82870;BME280;72645;47.136;15.420;2023-12-07T12:03:41;97095.98;;;10.33;39.56
82870;BME280;72645;47.136;15.420;2023-12-07T12:06:13;97099.23;;;10.36;40.73
82870;BME280;72645;47.136;15.420;2023-12-07T12:08:45;97098.30;;;10.43;40.69
82870;BME280;72645;47.136;15.420;2023-12-07T12:11:16;97094.42;;;10.47;40.17
82870;BME280;72645;47.136;15.420;2023-12-07T12:13:47;97092.50;;;10.43;39.96
82870;BME280;72645;47.136;15.420;2023-12-07T12:16:20;97088.36;;;10.44;40.65
82870;BME280;72645;47.136;15.420;2023-12-07T12:18:50;97087.86;;;10.38;39.93
82870;BME280;72645;47.136;15.420;2023-12-07T12:21:21;97088.56;;;10.36;40.39
82870;BME280;72645;47.136;15.420;2023-12-07T12:23:52;97087.83;;;10.38;41.41
82870;BME280;72645;47.136;15.420;2023-12-07T12:26:23;97090.45;;;10.40;40.67
82870;BME280;72645;47.136;15.420;2023-12-07T12:28:54;97087.98;;;10.41;39.01
82870;BME280;72645;47.136;15.420;2023-12-07T12:31:25;97091.69;;;10.30;38.54
82870;BME280;72645;47.136;15.420;2023-12-07T12:33:56;97085.05;;;10.18;38.71
82870;BME280;72645;47.136;15.420;2023-12-07T12:36:32;97083.00;;;10.07;39.30
82870;BME280;72645;47.136;15.420;2023-12-07T12:39:03;97088.21;;;10.03;42.46
82870;BME280;72645;47.136;15.420;2023-12-07T12:41:55;97099.29;;;10.23;46.18
82870;BME280;72645;47.136;15.420;2023-12-07T12:44:26;97098.98;;;10.35;43.35
82870;BME280;72645;47.136;15.420;2023-12-07T12:47:07;97095.60;;;10.36;43.01
82870;BME280;72645;47.136;15.420;2023-12-07T12:49:40;97094.99;;;10.39;41.37
82870;BME280;72645;47.136;15.420;2023-12-07T12:52:16;97099.76;;;10.30;39.72
82870;BME280;72645;47.136;15.420;2023-12-07T12:54:48;97092.52;;;10.21;39.88
82870;BME280;72645;47.136;15.420;2023-12-07T12:57:19;97099.10;;;10.20;40.51
82870;BME280;72645;47.136;15.420;2023-12-07T12:59:51;97099.55;;;10.18;40.37
82870;BME280;72645;47.136;15.420;2023-12-07T13:02:22;97101.76;;;10.21;40.07
82870;BME280;72645;47.136;15.420;2023-12-07T13:04:53;97102.13;;;10.21;39.96
82870;BME280;72645;47.136;15.420;2023-12-07T13:07:25;97104.31;;;10.18;39.70
82870;BME280;72645;47.136;15.420;2023-12-07T13:09:57;97104.55;;;10.15;40.93
82870;BME280;72645;47.136;15.420;2023-12-07T13:12:28;97101.77;;;10.11;40.52
82870;BME280;72645;47.136;15.420;2023-12-07T13:14:59;97104.48;;;10.03;39.45
82870;BME280;72645;47.136;15.420;2023-12-07T13:17:30;97104.05;;;9.96;39.69
82870;BME280;72645;47.136;15.420;2023-12-07T13:20:01;97105.77;;;9.90;38.53
82870;BME280;72645;47.136;15.420;2023-12-07T13:22:33;97100.61;;;9.77;38.80
82870;BME280;72645;47.136;15.420;2023-12-07T13:25:05;97101.72;;;9.74;38.98